Time;durP1;ratioP1;P1;durP2;ratioP2;P2;SDS_P1;SDS_P2;PMS_P1;PMS_P2;Temp;Humidity;BMP_temperature;BMP_pressure;BME280_temperature;BME280_humidity;BME280_pressure;Samples;Min_cycle;Max_cycle;Signal;HPM_P1;HPM_P2
2023/10/07 00:02:14;;;;;;;8.60;3.45;;;21.20;98.70;;;;;;5030389;28;20067;-66
2023/10/07 00:04:44;;;;;;;8.30;3.25;;;21.00;98.60;;;;;;5032825;28;20116;-65
2023/10/07 00:07:10;;;;;;;9.70;3.40;;;20.90;98.50;;;;;;5013600;28;20613;-66
2023/10/07 00:09:43;;;;;;;9.20;3.50;;;21.00;98.60;;;;;;5046593;28;20054;-66
2023/10/07 00:12:16;;;;;;;7.95;3.30;;;21.00;98.60;;;;;;4992276;28;20058;-65
2023/10/07 00:14:42;;;;;;;9.75;3.63;;;20.90;98.50;;;;;;5011394;28;20089;-65
2023/10/07 00:17:16;;;;;;;7.22;3.08;;;21.20;98.70;;;;;;5010820;28;20083;-68
2023/10/07 00:19:46;;;;;;;11.15;3.72;;;21.00;98.60;;;;;;5013116;28;20041;-68
2023/10/07 00:22:14;;;;;;;7.68;3.40;;;21.10;97.00;;;;;;5017939;28;20109;-66
2023/10/07 00:24:43;;;;;;;8.38;3.55;;;21.20;97.70;;;;;;5014869;28;20061;-68
2023/10/07 00:27:30;;;;;;;8.48;3.40;;;21.30;98.70;;;;;;5033799;28;20160;-66
2023/10/07 00:29:59;;;;;;;11.38;3.70;;;21.30;97.80;;;;;;5026782;28;20073;-66
2023/10/07 00:32:28;;;;;;;9.68;3.33;;;21.00;97.60;;;;;;5039321;28;20060;-65
2023/10/07 00:34:55;;;;;;;8.32;3.10;;;21.10;98.60;;;;;;5030780;28;20132;-68
2023/10/07 00:37:23;;;;;;;8.60;3.75;;;21.20;98.70;;;;;;5013198;28;20072;-68
2023/10/07 00:39:51;;;;;;;7.10;3.08;;;21.10;97.80;;;;;;5032338;28;20053;-66
2023/10/07 00:42:18;;;;;;;8.60;3.42;;;20.90;97.60;;;;;;5041827;28;20171;-66
2023/10/07 00:44:47;;;;;;;7.97;3.40;;;21.20;98.60;;;;;;5051956;28;20045;-65
2023/10/07 00:47:14;;;;;;;10.38;3.78;;;;;;;;;;5031971;28;20180;-66
2023/10/07 00:52:24;;;;;;;8.40;3.50;;;21.20;98.80;;;;;;5030913;28;20056;-66
2023/10/07 00:57:35;;;;;;;7.78;3.25;;;21.00;98.60;;;;;;5020262;28;20555;-66
2023/10/07 01:02:51;;;;;;;9.48;3.35;;;21.10;97.10;;;;;;5027020;28;20057;-66
2023/10/07 01:05:27;;;;;;;10.43;3.53;;;21.10;98.60;;;;;;5012219;28;20050;-66
2023/10/07 01:07:53;;;;;;;8.52;3.40;;;;;;;;;;5014175;28;20111;-68
2023/10/07 01:10:26;;;;;;;9.35;3.55;;;21.10;98.60;;;;;;5029451;28;20415;-67
2023/10/07 01:12:55;;;;;;;6.35;2.80;;;21.10;97.70;;;;;;5027843;28;20045;-65
2023/10/07 01:15:24;;;;;;;8.80;3.50;;;21.20;98.70;;;;;;5012074;28;20050;-65
2023/10/07 01:18:05;;;;;;;8.02;3.17;;;21.10;98.60;;;;;;5028038;28;20075;-69
2023/10/07 01:20:38;;;;;;;9.52;3.28;;;21.00;98.60;;;;;;5028986;28;20074;-65
2023/10/07 01:23:04;;;;;;;9.40;3.22;;;21.10;98.60;;;;;;5063180;28;20133;-65
2023/10/07 01:25:31;;;;;;;9.13;3.47;;;21.10;97.70;;;;;;5030794;28;20049;-65
2023/10/07 01:28:01;;;;;;;8.57;3.22;;;;;;;;;;5012526;28;20513;-67
2023/10/07 01:30:30;;;;;;;8.32;3.67;;;21.10;98.60;;;;;;5062203;28;20542;-67
2023/10/07 01:33:04;;;;;;;8.55;3.42;;;21.10;97.60;;;;;;5044176;28;20052;-65
2023/10/07 01:35:39;;;;;;;7.00;3.05;;;21.00;99.00;;;;;;5037248;28;20120;-67
2023/10/07 01:38:07;;;;;;;8.38;3.47;;;21.00;97.70;;;;;;5034153;28;20041;-68
2023/10/07 01:43:18;;;;;;;8.75;3.30;;;21.00;98.70;;;;;;5039053;28;20037;-67
2023/10/07 01:45:47;;;;;;;7.80;3.30;;;21.30;97.70;;;;;;5033820;28;20410;-67
2023/10/07 01:48:13;;;;;;;7.35;3.22;;;20.90;98.60;;;;;;5034972;28;20053;-66
2023/10/07 01:50:44;;;;;;;9.02;3.33;;;21.20;97.60;;;;;;5033557;28;20095;-65
2023/10/07 01:53:11;;;;;;;9.30;3.67;;;21.00;97.70;;;;;;5028683;28;20053;-66
2023/10/07 01:55:42;;;;;;;7.93;3.25;;;21.20;97.70;;;;;;5031597;28;20053;-65
2023/10/07 01:58:16;;;;;;;8.70;3.33;;;21.00;97.40;;;;;;5034121;28;20415;-66
2023/10/07 02:03:13;;;;;;;8.45;3.42;;;21.00;99.00;;;;;;5032381;28;20132;-66
2023/10/07 02:05:51;;;;;;;7.55;3.40;;;21.00;97.70;;;;;;5015918;28;20085;-66
2023/10/07 02:08:20;;;;;;;6.78;3.20;;;21.20;97.20;;;;;;5034437;28;20430;-66
2023/10/07 02:10:47;;;;;;;7.93;3.17;;;21.20;98.20;;;;;;5012548;28;20045;-66
2023/10/07 02:13:16;;;;;;;7.70;3.38;;;21.00;97.80;;;;;;4988347;28;20046;-65
2023/10/07 02:15:42;;;;;;;6.13;2.70;;;21.20;97.80;;;;;;5011102;28;20076;-65
2023/10/07 02:18:15;;;;;;;7.00;3.38;;;21.00;98.80;;;;;;5016603;28;20491;-65
2023/10/07 02:20:49;;;;;;;7.60;3.20;;;21.20;98.80;;;;;;5032242;28;20065;-69
2023/10/07 02:23:21;;;;;;;8.63;3.22;;;21.20;98.90;;;;;;5033362;28;20056;-66
2023/10/07 02:25:49;;;;;;;8.15;2.97;;;21.20;97.90;;;;;;5017504;28;20107;-66
2023/10/07 02:28:16;;;;;;;8.05;3.17;;;21.10;97.80;;;;;;5027205;28;20088;-66
2023/10/07 02:30:59;;;;;;;6.55;3.05;;;21.40;97.90;;;;;;5016300;28;20053;-66
2023/10/07 02:33:26;;;;;;;6.80;2.88;;;21.20;98.80;;;;;;5028490;28;20037;-65
2023/10/07 02:35:56;;;;;;;6.47;3.03;;;21.00;97.80;;;;;;5015231;28;20419;-66
2023/10/07 02:38:41;;;;;;;8.32;3.00;;;21.30;97.90;;;;;;5014484;28;20720;-66
2023/10/07 02:41:17;;;;;;;8.35;3.13;;;21.10;97.70;;;;;;5017902;28;20168;-66
2023/10/07 02:43:47;;;;;;;8.88;2.88;;;21.20;98.00;;;;;;5065465;28;20076;-66
2023/10/07 02:46:31;;;;;;;8.07;3.20;;;21.10;97.80;;;;;;5017387;28;20132;-65
2023/10/07 02:49:09;;;;;;;6.43;3.10;;;21.10;97.80;;;;;;5042747;28;20053;-65
2023/10/07 02:51:39;;;;;;;6.20;2.88;;;21.20;98.90;;;;;;5045386;28;20045;-66
2023/10/07 02:54:15;;;;;;;8.30;3.35;;;21.00;98.80;;;;;;5032628;28;20107;-65
2023/10/07 02:56:45;;;;;;;9.18;2.90;;;21.10;98.80;;;;;;5033507;28;20049;-66
2023/10/07 02:59:27;;;;;;;7.57;3.05;;;21.00;97.40;;;;;;5033699;28;20104;-66
2023/10/07 03:07:41;;;;;;;5.90;2.85;;;21.40;98.00;;;;;;5032529;28;20061;-66
2023/10/07 03:10:37;;;;;;;8.23;3.00;;;21.10;98.80;;;;;;5016460;28;20487;-66
2023/10/07 03:13:03;;;;;;;7.22;3.10;;;21.30;99.20;;;;;;5031426;28;20556;-66
2023/10/07 03:18:01;;;;;;;5.57;2.75;;;21.20;98.80;;;;;;5030389;28;20107;-65
2023/10/07 03:20:31;;;;;;;7.70;2.83;;;21.10;99.10;;;;;;5031881;28;20702;-65
2023/10/07 03:23:25;;;;;;;7.45;2.83;;;21.10;99.00;;;;;;5033875;28;20038;-66
2023/10/07 03:28:30;;;;;;;7.40;2.65;;;21.20;98.80;;;;;;5015752;28;20084;-66
2023/10/07 03:30:58;;;;;;;8.35;2.90;;;21.30;98.00;;;;;;4983042;28;20045;-65
2023/10/07 03:33:43;;;;;;;7.63;3.20;;;21.00;97.80;;;;;;5010888;28;20125;-66
2023/10/07 03:36:30;;;;;;;7.07;2.70;;;21.20;98.80;;;;;;5006296;28;20069;-68
2023/10/07 03:39:09;;;;;;;8.20;2.88;;;;;;;;;;5022331;28;20088;-66
2023/10/07 03:41:35;;;;;;;6.88;2.53;;;21.10;98.80;;;;;;5036700;28;20479;-67
2023/10/07 03:44:04;;;;;;;7.22;2.80;;;21.20;97.90;;;;;;5018836;28;20507;-67
2023/10/07 03:46:30;;;;;;;8.30;2.72;;;21.10;98.80;;;;;;5025738;28;20140;-67
2023/10/07 03:48:57;;;;;;;7.03;2.70;;;21.10;98.80;;;;;;5040214;28;20486;-67
2023/10/07 03:51:23;;;;;;;8.18;3.10;;;21.20;98.80;;;;;;5052617;28;20103;-65
2023/10/07 03:54:00;;;;;;;7.93;2.92;;;21.40;99.30;;;;;;5033752;28;20546;-66
2023/10/07 03:56:26;;;;;;;5.78;2.90;;;21.20;99.10;;;;;;5026934;28;20050;-65
2023/10/07 03:58:53;;;;;;;8.07;3.00;;;21.30;97.80;;;;;;5027850;28;20615;-65
2023/10/07 04:01:19;;;;;;;8.40;2.80;;;21.10;99.30;;;;;;5012699;28;20061;-65
2023/10/07 04:03:49;;;;;;;7.30;2.65;;;21.40;97.80;;;;;;5026638;28;20053;-65
2023/10/07 04:06:19;;;;;;;6.07;2.65;;;21.10;97.20;;;;;;5020593;28;20387;-66
2023/10/07 04:08:56;;;;;;;7.00;3.05;;;21.20;97.30;;;;;;5013043;28;20053;-65
2023/10/07 04:11:28;;;;;;;8.18;3.03;;;21.20;98.80;;;;;;5014555;28;20112;-66
2023/10/07 04:13:55;;;;;;;7.00;2.95;;;21.20;98.80;;;;;;5015881;28;20060;-66
2023/10/07 04:16:24;;;;;;;8.45;3.25;;;21.20;98.80;;;;;;5027259;28;20069;-66
2023/10/07 04:19:06;;;;;;;5.35;2.47;;;21.20;98.70;;;;;;5011374;28;20056;-65
2023/10/07 04:21:39;;;;;;;5.90;2.72;;;21.20;98.00;;;;;;4996699;28;20057;-65
2023/10/07 04:24:09;;;;;;;8.65;2.90;;;21.00;97.60;;;;;;5013276;28;20050;-66
2023/10/07 04:26:51;;;;;;;7.18;2.75;;;21.20;98.80;;;;;;5028509;28;20376;-66
2023/10/07 04:29:17;;;;;;;5.67;2.50;;;21.10;99.10;;;;;;5019725;28;20042;-65
2023/10/07 04:31:47;;;;;;;7.82;2.63;;;21.20;98.80;;;;;;5044809;28;20302;-66
2023/10/07 04:34:17;;;;;;;6.93;2.60;;;21.10;98.80;;;;;;5034720;28;20044;-66
2023/10/07 04:39:37;;;;;;;6.68;2.78;;;21.00;98.70;;;;;;4998138;28;20194;-67
2023/10/07 04:42:20;;;;;;;7.50;3.15;;;21.10;97.20;;;;;;4998670;28;20445;-68
2023/10/07 04:47:34;;;;;;;7.18;2.92;;;21.10;97.50;;;;;;5009637;28;20045;-65
2023/10/07 04:50:15;;;;;;;6.68;2.60;;;21.00;98.80;;;;;;5034892;28;20081;-65
2023/10/07 04:52:43;;;;;;;7.30;2.90;;;21.30;99.40;;;;;;4996952;28;20057;-67
2023/10/07 04:55:13;;;;;;;6.80;2.67;;;21.20;97.90;;;;;;4994953;28;20111;-67
2023/10/07 04:58:02;;;;;;;7.70;3.00;;;21.50;98.00;;;;;;5026410;28;20512;-67
2023/10/07 05:02:57;;;;;;;6.85;2.60;;;21.20;99.00;;;;;;5041455;28;20041;-67
2023/10/07 05:05:33;;;;;;;8.35;3.05;;;21.20;98.00;;;;;;5037302;28;20498;-67
2023/10/07 05:08:16;;;;;;;7.13;2.58;;;21.10;98.90;;;;;;5029869;28;20049;-65
2023/10/07 05:10:42;;;;;;;8.30;2.95;;;21.20;97.90;;;;;;5023956;28;20483;-66
2023/10/07 05:13:11;;;;;;;6.50;3.08;;;21.30;98.90;;;;;;5037821;28;20128;-65
2023/10/07 05:15:38;;;;;;;7.95;3.00;;;21.50;99.40;;;;;;5054638;28;20392;-65
2023/10/07 05:18:05;;;;;;;7.70;2.95;;;21.20;98.90;;;;;;5009777;28;20038;-66
2023/10/07 05:20:33;;;;;;;8.13;2.70;;;21.30;98.90;;;;;;4998070;28;20099;-65
2023/10/07 05:23:03;;;;;;;6.60;2.60;;;21.00;98.80;;;;;;5035563;28;20475;-66
2023/10/07 05:25:35;;;;;;;6.80;2.60;;;21.40;98.00;;;;;;5034173;28;20060;-66
2023/10/07 05:28:10;;;;;;;;;;;20.90;97.90;;;;;;5017305;28;20050;-65
2023/10/07 05:30:50;;;;;;;6.45;3.03;;;21.10;99.10;;;;;;5018744;28;19984;-65
2023/10/07 05:33:25;;;;;;;6.35;2.75;;;20.90;99.20;;;;;;5035446;28;20037;-66
2023/10/07 05:36:13;;;;;;;6.75;3.08;;;21.20;98.90;;;;;;5022497;28;20510;-66
2023/10/07 05:38:44;;;;;;;7.18;2.58;;;21.10;98.90;;;;;;5031103;28;20050;-68
2023/10/07 05:41:14;;;;;;;8.20;3.42;;;21.30;99.40;;;;;;4997970;28;20058;-66
2023/10/07 05:43:48;;;;;;;7.22;3.13;;;21.30;99.00;;;;;;5015119;28;20054;-65
2023/10/07 05:46:19;;;;;;;5.97;2.92;;;;;;;;;;5015102;28;20038;-65
2023/10/07 05:48:45;;;;;;;8.68;3.13;;;21.20;99.00;;;;;;5032271;28;20083;-65
2023/10/07 05:51:11;;;;;;;8.00;2.85;;;21.20;99.30;;;;;;5014926;28;20140;-65
2023/10/07 05:53:42;;;;;;;8.05;3.08;;;21.30;99.00;;;;;;5013203;28;20487;-65
2023/10/07 05:56:09;;;;;;;8.18;2.85;;;21.20;99.00;;;;;;5017676;28;20096;-65
2023/10/07 05:58:38;;;;;;;6.32;2.65;;;21.10;97.90;;;;;;5013884;28;20057;-65
2023/10/07 06:01:04;;;;;;;9.95;2.88;;;21.30;99.10;;;;;;5013764;28;20058;-65
2023/10/07 06:03:30;;;;;;;7.25;2.80;;;21.20;97.90;;;;;;5024704;28;20052;-64
2023/10/07 06:05:57;;;;;;;7.80;3.08;;;21.10;98.90;;;;;;5043636;28;20107;-68
2023/10/07 06:08:26;;;;;;;6.55;2.63;;;21.40;98.10;;;;;;5034118;28;20397;-65
2023/10/07 06:10:54;;;;;;;8.48;2.88;;;21.10;99.40;;;;;;5013700;28;20501;-65
2023/10/07 06:13:20;;;;;;;6.47;3.00;;;21.10;98.00;;;;;;5013944;28;20078;-65
2023/10/07 06:15:46;;;;;;;7.10;3.28;;;21.20;99.00;;;;;;5015045;28;20194;-65
2023/10/07 06:18:12;;;;;;;7.40;2.80;;;21.10;99.40;;;;;;5030075;28;20045;-65
2023/10/07 06:20:38;;;;;;;7.03;3.10;;;21.20;98.00;;;;;;5051048;28;20509;-65
2023/10/07 06:23:13;;;;;;;8.38;3.20;;;21.10;99.00;;;;;;5033085;28;20104;-65
2023/10/07 06:25:42;;;;;;;8.15;3.65;;;21.20;99.00;;;;;;4983100;28;20128;-64
2023/10/07 06:28:10;;;;;;;7.95;3.10;;;21.30;98.10;;;;;;5005521;28;20046;-65
2023/10/07 06:30:38;;;;;;;10.60;3.03;;;21.10;99.10;;;;;;5034235;28;20518;-65
2023/10/07 06:33:05;;;;;;;10.73;3.40;;;21.00;98.90;;;;;;5033296;28;20492;-66
2023/10/07 06:35:33;;;;;;;8.52;3.42;;;21.10;99.20;;;;;;5033130;28;20095;-65
2023/10/07 06:37:59;;;;;;;7.97;3.03;;;21.10;98.00;;;;;;5032162;28;20080;-65
2023/10/07 06:40:28;;;;;;;9.90;3.65;;;21.10;97.90;;;;;;5033825;28;20049;-65
2023/10/07 06:42:58;;;;;;;8.73;3.85;;;21.10;98.00;;;;;;5029597;28;20491;-64
2023/10/07 06:45:35;;;;;;;12.57;4.10;;;21.40;99.50;;;;;;5016655;28;20147;-67
2023/10/07 06:48:09;;;;;;;9.75;3.55;;;21.30;99.10;;;;;;5024305;28;20068;-68
2023/10/07 06:50:35;;;;;;;7.85;3.75;;;21.40;98.10;;;;;;4985141;28;20041;-69
2023/10/07 06:53:01;;;;;;;8.40;3.67;;;21.30;99.60;;;;;;5012612;28;20396;-65
2023/10/07 06:55:28;;;;;;;9.07;3.33;;;21.20;99.10;;;;;;5011817;28;20128;-64
2023/10/07 06:57:56;;;;;;;10.38;3.83;;;21.40;99.10;;;;;;5032216;28;20080;-65
2023/10/07 07:00:23;;;;;;;11.48;4.05;;;21.40;98.00;;;;;;5040304;28;20195;-65
2023/10/07 07:02:57;;;;;;;9.13;3.95;;;21.30;98.00;;;;;;5029624;28;20064;-65
2023/10/07 07:05:24;;;;;;;11.00;3.70;;;21.40;99.00;;;;;;5046597;28;20053;-65
2023/10/07 07:07:53;;;;;;;12.25;3.70;;;21.30;98.00;;;;;;5030255;28;20099;-65
2023/10/07 07:10:30;;;;;;;12.18;4.50;;;21.40;99.00;;;;;;5004890;28;20107;-68
2023/10/07 07:13:04;;;;;;;10.18;4.15;;;21.20;97.80;;;;;;5031056;28;20108;-65
2023/10/07 07:15:36;;;;;;;8.45;3.17;;;21.40;97.80;;;;;;5012096;28;20076;-66
2023/10/07 07:18:14;;;;;;;9.82;3.53;;;21.60;98.10;;;;;;5018305;28;20499;-65
2023/10/07 07:20:49;;;;;;;10.80;4.13;;;21.40;99.50;;;;;;5031076;28;20053;-65
2023/10/07 07:23:21;;;;;;;10.98;3.70;;;21.30;98.10;;;;;;5031937;28;20124;-66
2023/10/07 07:26:30;;;;;;;12.37;4.00;;;21.50;99.40;;;;;;5031432;28;20083;-68
2023/10/07 07:28:43;;;;;;;9.77;3.65;;;21.40;99.50;;;;;;5006878;28;20065;-66
2023/10/07 07:31:11;;;;;;;8.80;3.83;;;21.30;98.40;;;;;;5018283;28;20041;-70
2023/10/07 07:33:37;;;;;;;10.15;3.70;;;21.40;99.10;;;;;;5014286;28;20080;-69
2023/10/07 07:36:18;;;;;;;8.95;3.13;;;21.50;99.20;;;;;;5011742;28;20041;-69
2023/10/07 07:38:45;;;;;;;8.88;3.35;;;21.50;97.80;;;;;;5031870;28;20045;-69
2023/10/07 07:41:26;;;;;;;12.85;3.83;;;;;;;;;;5031205;28;20060;-69
2023/10/07 07:43:58;;;;;;;7.15;3.30;;;;;;;;;;5032753;28;20398;-66
2023/10/07 07:46:29;;;;;;;12.63;3.63;;;21.50;99.00;;;;;;5044655;28;20120;-70
2023/10/07 07:48:55;;;;;;;11.00;3.88;;;21.50;99.10;;;;;;5011865;28;20052;-70
2023/10/07 07:51:24;;;;;;;9.77;3.47;;;;;;;;;;5002171;28;20142;-70
2023/10/07 07:53:51;;;;;;;8.88;3.22;;;;;;;;;;4999225;28;20080;-71
2023/10/07 07:56:18;;;;;;;11.48;3.42;;;21.40;99.20;;;;;;5039190;28;20047;-72
2023/10/07 07:58:47;;;;;;;9.48;3.67;;;21.40;99.40;;;;;;5025309;28;20099;-70
2023/10/07 08:01:29;;;;;;;9.35;3.30;;;21.60;99.40;;;;;;5089911;27;20909;-66
2023/10/07 08:04:09;;;;;;;8.23;3.28;;;21.50;97.20;;;;;;5090279;28;20140;-67
2023/10/07 08:06:36;;;;;;;7.63;2.80;;;21.40;97.50;;;;;;5081046;28;20045;-70
2023/10/07 08:09:03;;;;;;;9.07;3.13;;;;;;;;;;5082892;28;20119;-69
2023/10/07 08:11:38;;;;;;;10.30;3.10;;;;;;;;;;5089930;28;20044;-67
2023/10/07 08:14:10;;;;;;;9.13;3.67;;;21.50;99.10;;;;;;5089696;28;20051;-69
2023/10/07 08:16:51;;;;;;;6.70;3.00;;;21.50;99.00;;;;;;5087068;28;20054;-69
2023/10/07 08:19:23;;;;;;;10.00;3.60;;;21.40;97.10;;;;;;5072560;28;20048;-67
2023/10/07 08:21:51;;;;;;;7.75;3.60;;;21.50;99.30;;;;;;5071369;28;20056;-68
2023/10/07 08:24:20;;;;;;;8.55;3.45;;;21.40;98.90;;;;;;5089529;28;20037;-67
2023/10/07 08:26:48;;;;;;;9.18;3.45;;;21.50;97.80;;;;;;5104746;28;20088;-70
2023/10/07 08:29:32;;;;;;;8.07;3.15;;;21.60;98.90;;;;;;5069013;28;20438;-65
2023/10/07 08:32:29;;;;;;;8.32;3.42;;;21.40;98.80;;;;;;5071135;28;20454;-70
2023/10/07 08:34:59;;;;;;;7.50;3.35;;;;;;;;;;5074451;28;20048;-66
2023/10/07 08:37:32;;;;;;;9.25;3.88;;;;;;;;;;5086778;28;20093;-70
2023/10/07 08:40:10;;;;;;;8.32;3.60;;;21.60;97.70;;;;;;5067527;28;20052;-71
2023/10/07 08:42:36;;;;;;;10.32;3.45;;;21.50;99.10;;;;;;5057111;28;20063;-65
2023/10/07 08:45:14;;;;;;;7.68;3.25;;;;;;;;;;5042415;28;20458;-67
2023/10/07 08:47:49;;;;;;;8.27;3.20;;;;;;;;;;5087257;28;20040;-67
2023/10/07 08:50:23;;;;;;;7.00;3.00;;;21.80;97.70;;;;;;5069138;28;20051;-70
2023/10/07 08:53:04;;;;;;;8.63;3.35;;;21.60;98.70;;;;;;5069863;28;20280;-69
2023/10/07 08:55:32;;;;;;;9.95;3.33;;;21.80;98.70;;;;;;5079411;28;20052;-68
2023/10/07 08:58:02;;;;;;;7.35;3.10;;;21.70;97.70;;;;;;5077252;28;20040;-69
2023/10/07 09:00:32;;;;;;;7.18;3.17;;;21.80;97.60;;;;;;5054020;28;20465;-68
2023/10/07 09:03:14;;;;;;;6.00;2.70;;;21.80;97.50;;;;;;5060737;28;20094;-64
2023/10/07 09:05:40;;;;;;;8.85;3.05;;;21.70;98.60;;;;;;5073782;28;20088;-69
2023/10/07 09:08:11;;;;;;;8.07;3.10;;;21.80;98.60;;;;;;5074731;28;20051;-66
2023/10/07 09:10:40;;;;;;;7.07;3.30;;;21.70;97.30;;;;;;5080889;28;20139;-67
2023/10/07 09:13:12;;;;;;;10.00;3.10;;;21.80;97.40;;;;;;5020650;28;20438;-68
2023/10/07 09:15:42;;;;;;;7.40;3.30;;;;;;;;;;5025043;28;20048;-68
2023/10/07 09:18:10;;;;;;;9.18;3.33;;;;;;;;;;5062351;28;20127;-68
2023/10/07 09:20:45;;;;;;;10.82;3.33;;;;;;;;;;5057479;28;20461;-67
2023/10/07 09:23:19;;;;;;;10.02;3.17;;;;;;;;;;5056366;28;20049;-67
2023/10/07 09:25:50;;;;;;;7.00;3.00;;;22.00;98.30;;;;;;5045585;28;20498;-67
2023/10/07 09:28:19;;;;;;;10.02;3.42;;;;;;;;;;5075957;28;20056;-69
2023/10/07 09:30:48;;;;;;;8.85;3.30;;;;;;;;;;5061428;28;20436;-67
2023/10/07 09:33:17;;;;;;;6.80;3.10;;;22.10;96.60;;;;;;5066428;28;20052;-66
2023/10/07 09:35:46;;;;;;;9.48;3.47;;;21.90;96.80;;;;;;5073811;28;20045;-66
2023/10/07 09:38:12;;;;;;;7.07;3.10;;;21.70;98.50;;;;;;5055653;28;20512;-68
2023/10/07 09:43:27;;;;;;;9.75;3.10;;;;;;;;;;5055374;28;20756;-68
2023/10/07 09:45:53;;;;;;;9.40;3.20;;;;;;;;;;5037396;28;20124;-68
2023/10/07 09:48:33;;;;;;;10.48;3.78;;;21.80;96.20;;;;;;5046335;28;20048;-66
2023/10/07 09:51:00;;;;;;;8.02;3.03;;;22.00;98.10;;;;;;5044313;28;20060;-68
2023/10/07 09:53:30;;;;;;;7.55;3.20;;;21.90;98.10;;;;;;5045928;28;20051;-67
2023/10/07 09:56:24;;;;;;;6.28;3.10;;;21.90;98.10;;;;;;5036862;28;20059;-67
2023/10/07 09:59:13;;;;;;;7.15;3.08;;;21.70;96.80;;;;;;5048806;28;20052;-68
2023/10/07 10:02:07;;;;;;;8.18;3.10;;;21.90;98.00;;;;;;5072948;28;20148;-66
2023/10/07 10:05:31;;;;;;;8.25;3.67;;;21.80;98.00;;;;;;5044505;28;20045;-67
2023/10/07 10:08:11;;;;;;;8.35;3.28;;;21.90;96.10;;;;;;5050983;28;20051;-68
2023/10/07 10:10:44;;;;;;;8.27;3.42;;;21.90;97.90;;;;;;5053709;28;20049;-68
2023/10/07 10:13:33;;;;;;;9.10;3.42;;;22.00;98.00;;;;;;5019647;28;20482;-69
2023/10/07 10:16:00;;;;;;;7.07;3.13;;;;;;;;;;5020690;28;20053;-68
2023/10/07 10:18:38;;;;;;;8.75;3.17;;;21.90;96.80;;;;;;5066913;28;20049;-68
2023/10/07 10:21:05;;;;;;;7.30;3.20;;;;;;;;;;5051626;28;20044;-68
2023/10/07 10:23:34;;;;;;;7.20;3.58;;;22.00;96.40;;;;;;5033659;28;20106;-69
2023/10/07 10:26:04;;;;;;;9.15;3.13;;;;;;;;;;5027309;28;20139;-64
2023/10/07 10:28:33;;;;;;;11.90;3.72;;;21.90;98.30;;;;;;5028713;28;20414;-68
2023/10/07 10:30:59;;;;;;;11.98;3.83;;;22.00;97.10;;;;;;5034383;28;20194;-64
2023/10/07 10:33:35;;;;;;;12.25;4.05;;;22.00;97.90;;;;;;5034548;28;20153;-68
2023/10/07 10:36:02;;;;;;;11.82;3.67;;;21.90;98.00;;;;;;5033765;28;20142;-68
2023/10/07 10:38:38;;;;;;;10.20;4.13;;;21.80;97.80;;;;;;5030370;28;20075;-68
2023/10/07 10:41:05;;;;;;;19.42;4.10;;;;;;;;;;5077500;28;20401;-67
2023/10/07 10:43:31;;;;;;;12.90;3.80;;;;;;;;;;5071616;28;20044;-65
2023/10/07 10:46:02;;;;;;;9.43;3.85;;;21.90;97.70;;;;;;5053256;28;20482;-65
2023/10/07 10:48:31;;;;;;;7.38;3.53;;;22.00;97.90;;;;;;5035963;28;20060;-68
2023/10/07 10:50:57;;;;;;;10.68;4.07;;;;;;;;;;5055411;28;20120;-70
2023/10/07 10:53:23;;;;;;;9.98;3.60;;;22.20;97.90;;;;;;5071678;28;20127;-69
2023/10/07 10:55:51;;;;;;;11.70;3.90;;;22.20;97.70;;;;;;5064594;28;20573;-68
2023/10/07 10:58:17;;;;;;;9.68;3.80;;;22.00;96.60;;;;;;5050720;28;20114;-67
2023/10/07 11:00:51;;;;;;;10.05;4.30;;;22.30;97.70;;;;;;5052175;28;20048;-68
2023/10/07 11:03:23;;;;;;;8.70;4.10;;;;;;;;;;5060437;28;20063;-69
2023/10/07 11:05:56;;;;;;;10.63;4.32;;;22.10;97.60;;;;;;5067360;28;20481;-68
2023/10/07 11:08:22;;;;;;;9.95;4.00;;;22.30;97.60;;;;;;5052756;28;20135;-71
2023/10/07 11:10:52;;;;;;;10.40;3.75;;;22.20;96.80;;;;;;5054599;28;20063;-70
2023/10/07 11:13:20;;;;;;;9.20;4.22;;;22.10;97.50;;;;;;5034439;28;20048;-70
2023/10/07 11:16:12;;;;;;;8.00;3.70;;;22.20;97.50;;;;;;5051988;28;20079;-68
2023/10/07 11:18:41;;;;;;;10.70;4.30;;;22.10;96.10;;;;;;5068332;28;20045;-70
2023/10/07 11:21:18;;;;;;;9.43;3.90;;;22.30;97.50;;;;;;5066617;28;21157;-67
2023/10/07 11:23:53;;;;;;;10.98;4.70;;;22.20;95.70;;;;;;5048470;28;20398;-67
2023/10/07 11:26:20;;;;;;;7.63;3.80;;;22.30;97.40;;;;;;5062837;28;20049;-67
2023/10/07 11:28:51;;;;;;;9.70;4.30;;;22.30;97.40;;;;;;5051107;28;20048;-67
2023/10/07 11:31:30;;;;;;;10.25;4.50;;;22.30;97.40;;;;;;5055035;28;20059;-67
2023/10/07 11:33:57;;;;;;;9.27;3.97;;;22.40;97.40;;;;;;5045829;28;20348;-70
2023/10/07 11:36:23;;;;;;;12.68;4.65;;;22.10;97.30;;;;;;5068323;28;20681;-68
2023/10/07 11:38:50;;;;;;;17.60;4.45;;;;;;;;;;5049813;28;20044;-68
2023/10/07 11:41:16;;;;;;;11.90;4.53;;;22.30;95.50;;;;;;5054169;28;20197;-67
2023/10/07 11:43:48;;;;;;;12.25;4.50;;;22.20;96.20;;;;;;5049252;28;20511;-69
2023/10/07 11:46:14;;;;;;;;;;;22.30;96.30;;;;;;5055462;28;20424;-68
2023/10/07 11:48:41;;;;;;;15.93;4.45;;;22.30;97.40;;;;;;5061930;28;19973;-69
2023/10/07 11:51:08;;;;;;;10.25;4.10;;;;;;;;;;5070524;28;20047;-69
2023/10/07 11:53:35;;;;;;;11.23;3.80;;;;;;;;;;5070278;28;20497;-67
2023/10/07 11:56:05;;;;;;;12.23;4.30;;;22.30;97.20;;;;;;5070434;28;20048;-67
2023/10/07 11:58:34;;;;;;;14.63;4.38;;;22.20;97.20;;;;;;5066266;28;20049;-68
2023/10/07 12:01:03;;;;;;;11.65;4.90;;;22.10;97.20;;;;;;5067407;28;20560;-67
2023/10/07 12:03:30;;;;;;;12.95;4.25;;;22.30;97.60;;;;;;5036701;28;20052;-69
2023/10/07 12:05:58;;;;;;;11.82;4.80;;;22.60;97.50;;;;;;5052599;28;20049;-68
2023/10/07 12:08:24;;;;;;;14.70;4.40;;;22.20;97.10;;;;;;5016187;28;20044;-70
2023/10/07 12:10:51;;;;;;;10.48;4.72;;;22.20;96.20;;;;;;5033380;28;20048;-69
2023/10/07 12:13:19;;;;;;;10.20;4.43;;;22.10;97.10;;;;;;5069481;28;20063;-68
2023/10/07 12:15:45;;;;;;;12.23;4.47;;;22.40;97.10;;;;;;5052936;28;20053;-70
2023/10/07 12:18:16;;;;;;;9.93;4.32;;;22.30;96.00;;;;;;5050910;28;20049;-69
2023/10/07 12:20:42;;;;;;;11.98;4.63;;;22.20;97.00;;;;;;5034191;28;20387;-69
2023/10/07 12:23:08;;;;;;;11.57;4.70;;;22.30;96.10;;;;;;5069204;28;20048;-69
2023/10/07 12:25:41;;;;;;;13.50;4.43;;;22.10;96.90;;;;;;5067312;28;20045;-70
2023/10/07 12:28:08;;;;;;;;;;;22.20;95.60;;;;;;5060240;28;20067;-69
2023/10/07 12:30:35;;;;;;;9.13;4.10;;;22.20;97.00;;;;;;5068086;28;19927;-67
2023/10/07 12:33:02;;;;;;;16.63;5.50;;;22.10;96.90;;;;;;5054342;28;20215;-67
2023/10/07 12:35:31;;;;;;;9.98;4.07;;;22.10;97.00;;;;;;5061862;28;20474;-66
2023/10/07 12:37:59;;;;;;;13.73;5.15;;;22.20;96.00;;;;;;5070646;28;20040;-66
2023/10/07 12:40:28;;;;;;;13.20;4.43;;;22.20;97.00;;;;;;5062078;28;20048;-66
2023/10/07 12:42:54;;;;;;;12.10;4.57;;;22.20;97.10;;;;;;5034754;28;20060;-66
2023/10/07 12:45:20;;;;;;;10.63;4.70;;;22.20;97.20;;;;;;5049859;28;20049;-67
2023/10/07 12:47:51;;;;;;;14.93;5.07;;;22.10;95.80;;;;;;5062174;28;20044;-66
2023/10/07 12:50:29;;;;;;;17.13;4.85;;;22.10;95.90;;;;;;5072686;28;20067;-67
2023/10/07 12:53:04;;;;;;;12.73;4.25;;;22.10;96.00;;;;;;5051773;28;20099;-66
2023/10/07 12:55:34;;;;;;;12.35;4.80;;;22.00;97.10;;;;;;5071359;28;20375;-66
2023/10/07 12:58:15;;;;;;;11.20;4.50;;;22.10;97.20;;;;;;5062426;28;20083;-66
2023/10/07 13:00:42;;;;;;;13.23;4.57;;;22.00;96.90;;;;;;5039809;28;20064;-66
2023/10/07 13:03:08;;;;;;;12.80;4.30;;;22.30;95.90;;;;;;5055165;28;20041;-66
2023/10/07 13:05:42;;;;;;;12.00;4.80;;;22.20;95.90;;;;;;5063197;28;20041;-66
2023/10/07 13:08:15;;;;;;;11.73;4.22;;;22.10;96.90;;;;;;5075369;28;20044;-66
2023/10/07 13:10:42;;;;;;;12.45;4.60;;;22.30;95.50;;;;;;5073214;28;20045;-66
2023/10/07 13:13:13;;;;;;;10.73;4.43;;;22.40;96.00;;;;;;5074010;28;20052;-66
2023/10/07 13:15:41;;;;;;;11.30;4.68;;;22.00;95.80;;;;;;5039102;28;20135;-66
2023/10/07 13:18:09;;;;;;;9.77;4.35;;;22.30;96.10;;;;;;5072237;28;20040;-66
2023/10/07 13:20:35;;;;;;;9.60;3.78;;;22.10;95.90;;;;;;5071832;28;20056;-66
2023/10/07 13:23:01;;;;;;;8.73;3.88;;;22.10;95.80;;;;;;5090757;28;20044;-66
2023/10/07 13:25:27;;;;;;;9.18;4.10;;;22.10;95.80;;;;;;5068975;28;20040;-66
2023/10/07 13:27:56;;;;;;;7.78;3.78;;;22.20;95.80;;;;;;5072683;28;20120;-66
2023/10/07 13:30:24;;;;;;;8.35;3.63;;;22.20;97.30;;;;;;5050398;28;20052;-66
2023/10/07 13:32:52;;;;;;;9.13;4.43;;;22.00;97.00;;;;;;5071746;28;20497;-66
2023/10/07 13:35:19;;;;;;;11.00;4.18;;;21.80;96.00;;;;;;5036886;28;20053;-66
2023/10/07 13:37:46;;;;;;;9.43;4.07;;;22.20;96.10;;;;;;5070792;28;20072;-69
2023/10/07 13:40:16;;;;;;;11.68;4.00;;;22.10;97.20;;;;;;5071098;28;20063;-66
2023/10/07 13:42:50;;;;;;;9.85;3.80;;;22.00;96.10;;;;;;5056548;28;20041;-66
2023/10/07 13:45:23;;;;;;;8.85;4.13;;;21.90;96.30;;;;;;5090332;28;20066;-66
2023/10/07 13:47:50;;;;;;;9.10;4.07;;;21.60;97.50;;;;;;5054154;28;20049;-66
2023/10/07 13:50:20;;;;;;;9.85;3.95;;;21.70;96.00;;;;;;5036650;28;20110;-66
2023/10/07 13:52:50;;;;;;;9.05;3.83;;;22.00;95.90;;;;;;5021142;28;20486;-66